createdAt,value
2022-11-15T00:07:54.655Z,90.33
2022-11-15T00:18:19.708Z,93.23
2022-11-15T00:28:42.648Z,90.73
2022-11-15T00:39:07.753Z,96.00
2022-11-15T00:49:29.583Z,92.33
2022-11-15T00:59:53.458Z,90.67
2022-11-15T01:10:15.389Z,91.67
2022-11-15T01:20:43.065Z,89.67
2022-11-15T01:31:07.576Z,92.67
2022-11-15T01:41:35.375Z,93.77
2022-11-15T01:51:59.158Z,91.70
2022-11-15T02:02:22.614Z,91.83
2022-11-15T02:12:44.599Z,92.33
2022-11-15T02:23:49.280Z,91.90
2022-11-15T02:34:25.196Z,94.80
2022-11-15T02:44:49.289Z,89.50
2022-11-15T02:55:32.608Z,88.10
2022-11-15T03:06:03.191Z,90.37
2022-11-15T03:16:31.978Z,91.10
2022-11-15T03:26:55.899Z,86.97
2022-11-15T03:37:23.484Z,88.13
2022-11-15T03:47:51.652Z,84.37
2022-11-15T03:58:14.824Z,90.73
2022-11-15T04:08:36.765Z,87.73
2022-11-15T04:19:17.289Z,88.40
2022-11-15T04:29:39.193Z,87.53
2022-11-15T04:40:02.874Z,86.87
2022-11-15T04:50:25.080Z,91.50
2022-11-15T05:00:48.622Z,87.50
2022-11-15T05:11:11.044Z,84.47
2022-11-15T05:21:34.869Z,86.77
2022-11-15T05:31:56.828Z,80.87
2022-11-15T05:42:20.936Z,84.10
2022-11-15T05:52:42.969Z,84.33
2022-11-15T06:03:06.473Z,84.83
2022-11-15T06:13:28.564Z,82.60
2022-11-15T06:23:52.517Z,85.83
2022-11-15T06:34:14.474Z,89.00
2022-11-15T06:44:38.788Z,94.67
2022-11-15T06:55:00.540Z,89.07
2022-11-15T07:05:23.812Z,85.40
2022-11-15T07:15:45.735Z,84.03
2022-11-15T07:26:10.304Z,86.97
2022-11-15T07:36:32.409Z,89.73
2022-11-15T07:46:55.636Z,90.23
2022-11-15T07:57:18.405Z,87.20
2022-11-15T08:07:42.366Z,91.00
2022-11-15T08:18:07.844Z,89.73
2022-11-15T08:28:31.170Z,87.73
2022-11-15T08:38:53.033Z,93.53
2022-11-15T08:49:16.128Z,91.00
2022-11-15T08:59:38.150Z,92.27
2022-11-15T09:10:01.854Z,94.30
2022-11-15T09:20:24.302Z,91.90
2022-11-15T09:30:47.638Z,96.47
2022-11-15T09:41:36.783Z,100.07
2022-11-15T09:52:01.233Z,99.47
2022-11-15T10:02:19.503Z,102.97
2022-11-15T10:12:25.168Z,110.33
2022-11-15T10:22:31.899Z,110.80
2022-11-15T10:32:39.225Z,109.33
2022-11-15T10:42:42.994Z,136.20
2022-11-15T10:52:49.368Z,101.23
2022-11-15T11:03:01.574Z,107.77
2022-11-15T11:13:25.914Z,117.07
2022-11-15T11:23:44.958Z,128.37
2022-11-15T11:34:03.313Z,134.77
2022-11-15T11:44:25.744Z,134.10
2022-11-15T11:54:40.691Z,141.23
2022-11-15T12:04:51.745Z,138.67
2022-11-15T12:15:00.119Z,135.37
2022-11-15T12:25:08.952Z,130.33
2022-11-15T12:35:30.134Z,122.53
2022-11-15T12:45:38.474Z,119.83
2022-11-15T12:55:43.493Z,117.53
2022-11-15T13:06:08.791Z,111.30
2022-11-15T13:16:20.407Z,113.83
2022-11-15T13:26:24.730Z,109.10
2022-11-15T13:36:34.086Z,112.57
2022-11-15T13:46:37.550Z,107.30
2022-11-15T13:56:47.360Z,111.63
2022-11-15T14:06:54.494Z,112.73
2022-11-15T14:17:01.788Z,107.40
2022-11-15T14:27:24.464Z,107.03
2022-11-15T14:37:32.478Z,109.43
2022-11-15T14:47:36.013Z,107.50
2022-11-15T14:57:41.001Z,107.30
2022-11-15T15:07:45.119Z,114.97
2022-11-15T15:17:50.420Z,114.27
2022-11-15T15:27:53.872Z,115.00
2022-11-15T15:37:58.729Z,111.77
2022-11-15T15:48:02.162Z,108.13
2022-11-15T15:58:09.134Z,102.23
2022-11-15T16:08:21.512Z,110.97
2022-11-15T16:18:26.324Z,111.40
2022-11-15T16:28:32.238Z,114.70
2022-11-15T16:38:37.546Z,112.60
2022-11-15T16:48:41.155Z,112.70
2022-11-15T16:58:45.995Z,110.13
2022-11-15T17:08:50.113Z,107.73
2022-11-15T17:18:56.018Z,119.43
2022-11-15T17:29:01.541Z,118.57
2022-11-15T17:39:06.902Z,123.90
2022-11-15T17:49:10.525Z,120.60
2022-11-15T17:59:20.164Z,127.60
2022-11-15T18:09:26.445Z,115.07
2022-11-15T18:19:31.354Z,113.23
2022-11-15T18:29:37.774Z,111.17
2022-11-15T18:39:42.809Z,111.90
2022-11-15T18:49:46.383Z,110.80
2022-11-15T18:59:51.297Z,109.83
2022-11-15T19:09:56.230Z,129.37
2022-11-15T19:20:01.130Z,130.30
2022-11-15T19:30:05.015Z,131.00
2022-11-15T19:40:11.997Z,115.07
2022-11-15T19:50:15.666Z,115.60
2022-11-15T20:00:21.567Z,115.37
2022-11-15T20:10:25.050Z,117.27
2022-11-15T20:20:30.577Z,131.70
2022-11-15T20:30:34.356Z,138.83
2022-11-15T20:40:40.281Z,136.60
2022-11-15T20:50:46.202Z,127.80
2022-11-15T21:00:51.139Z,123.63
2022-11-15T21:11:13.378Z,120.27
2022-11-15T21:21:18.334Z,126.40
2022-11-15T21:31:23.077Z,122.87
2022-11-15T21:41:27.943Z,123.33
2022-11-15T21:51:32.515Z,126.33
2022-11-15T22:01:56.217Z,129.77
2022-11-15T22:11:59.796Z,121.13
2022-11-15T22:22:04.911Z,124.60
2022-11-15T22:32:08.517Z,121.43
2022-11-15T22:42:13.639Z,130.00
2022-11-15T22:52:17.355Z,122.53
2022-11-15T23:02:22.462Z,123.90
2022-11-15T23:12:43.607Z,123.80
2022-11-15T23:22:48.688Z,128.40
2022-11-15T23:33:09.815Z,123.03
2022-11-15T23:43:14.851Z,132.77
2022-11-15T23:53:18.568Z,128.47
